Carbondale, Iowa
Current Conditions -  °F | °C
As of 2:15 AM on Monday 24 Nov 2014 (Local Time) from KIKV Reporting Station
Overcast Overcast  
Wind Chill: 19°   Ceiling: 1800
Heat Index: 32°   Visibility: 10mi
Dew Point: 28°   Wind: 24mph
Humidity: 87%   Direction: 300°WNW
Pressure: 29.38"   Gusts: NA
Location:  41.6142°N, 93.5543°W
Report Text: KIKV 240815Z AUTO 30021KT 10SM OVC018 00/M02 A2938 RMK AO2
Loading
Personal Weather Stations






























Interactive Weather Map New forecast layout! Learn more

10-Day Weather Forecast

Advertisements
Track Severe Weather on mobile